CST,Max TemperatureF,Mean TemperatureF,Min TemperatureF,Max Dew PointF,MeanDew PointF,Min DewpointF,Max Humidity, Mean Humidity, Min Humidity, Max Sea Level PressureIn, Mean Sea Level PressureIn, Min Sea Level PressureIn, Max VisibilityMiles, Mean VisibilityMiles, Min VisibilityMiles, Max Wind SpeedMPH, Mean Wind SpeedMPH, Max Gust SpeedMPH,PrecipitationIn, CloudCover, Events, WindDirDegrees
2013-12-1,70,60,50,56,53,48,93,77,61,30.14,30.01,29.89,10,9,6,24,11,29,0.00,7,,208
2013-12-2,70,55,40,49,46,40,96,72,47,29.88,29.75,29.66,10,10,7,10,3,13,0.00,2,Fog,207
2013-12-3,76,60,43,46,41,35,100,62,23,29.63,29.56,29.51,10,9,4,14,7,17,0.00,4,,179
2013-12-4,79,64,48,49,43,34,74,55,35,29.88,29.70,29.56,10,10,10,23,10,28,0.00,7,,56
2013-12-5,48,39,29,32,25,18,92,72,51,30.18,30.11,29.89,10,7,2,28,18,33,0.40,8,Rain,352
2013-12-6,32,28,24,30,23,17,92,80,68,30.53,30.29,30.12,10,7,1,25,17,31,0.85,8,Rain-Snow,348
2013-12-7,26,24,21,22,18,13,88,78,68,30.55,30.44,30.28,10,9,4,18,12,26,0.00,8,,1
2013-12-8,33,30,26,30,27,22,92,87,81,30.26,30.15,30.04,8,4,0,10,5,13,T,8,,196
2013-12-9,33,31,29,29,26,18,92,78,63,30.35,30.23,30.15,10,8,0,23,13,27,0.00,8,,15
2013-12-10,38,29,19,22,17,11,75,60,44,30.47,30.40,30.35,10,10,10,18,7,23,0.00,0,,353
2013-12-11,44,35,25,29,25,21,88,71,53,30.60,30.45,30.32,10,10,7,13,6,15,0.00,5,,43
2013-12-12,48,37,26,33,28,22,84,67,49,30.61,30.50,30.31,10,10,8,10,4,11,0.00,6,,132
2013-12-13,47,44,40,45,38,30,93,78,62,30.26,29.98,29.79,10,6,1,17,10,21,0.01,8,Rain,166
2013-12-14,47,40,32,44,36,25,100,79,57,30.34,30.04,29.77,10,5,0,29,13,34,T,5,Fog,340
2013-12-15,61,44,26,33,28,22,85,56,27,30.36,30.29,30.22,10,9,6,13,6,14,0.00,0,,209
2013-12-16,66,49,32,36,33,29,82,56,30,30.24,30.19,30.14,10,10,10,15,8,18,0.00,0,,188
2013-12-17,70,53,35,37,35,32,82,54,26,30.29,30.24,30.19,10,10,10,9,3,10,0.00,0,,182
2013-12-18,70,54,38,47,41,35,85,58,31,30.24,30.13,29.98,10,10,10,23,10,28,0.00,5,,177
2013-12-19,72,63,54,61,54,47,83,70,57,29.96,29.83,29.73,10,10,10,33,20,41,0.00,6,,183
2013-12-20,68,52,35,62,50,33,93,85,76,29.84,29.80,29.73,10,6,1,29,13,36,0.02,8,Rain,277
2013-12-21,52,44,35,49,41,33,96,90,83,29.78,29.68,29.55,10,4,0,21,7,24,1.48,7,Fog-Rain-Thunderstorm,1
2013-12-22,43,36,29,41,29,24,100,77,53,30.40,30.11,29.82,10,9,1,23,14,28,T,5,,335
2013-12-23,46,36,25,28,25,22,85,64,42,30.56,30.49,30.39,10,10,7,10,5,12,0.00,1,,13
2013-12-24,53,39,24,33,28,21,88,66,44,30.55,30.41,30.25,10,10,7,21,10,25,0.00,0,,131
2013-12-25,57,45,33,40,33,28,82,61,40,30.41,30.33,30.25,10,10,7,18,9,23,0.00,2,,346
2013-12-26,55,43,30,33,30,27,89,64,38,30.45,30.39,30.34,10,9,5,12,5,13,0.00,2,,332
2013-12-27,58,45,32,37,33,26,89,65,40,30.46,30.38,30.32,10,9,6,8,2,10,0.00,5,,297
2013-12-28,60,48,35,41,37,32,92,68,43,30.30,30.12,29.96,10,9,4,15,7,19,T,4,,178
2013-12-29,50,41,32,40,31,22,85,73,60,30.29,30.13,29.93,10,10,6,26,11,31,T,7,Rain,337
2013-12-30,44,37,29,25,18,14,72,54,36,30.42,30.32,30.26,10,10,10,18,8,21,0.00,3,,338
2013-12-31,54,39,24,28,24,19,75,54,32,30.44,30.34,30.19,10,10,10,13,7,18,0.00,1,,185